createdAt,value
2018-09-27T00:00:45.474Z,21.14
2018-09-27T00:01:45.477Z,21.08
2018-09-27T00:02:45.501Z,21.10
2018-09-27T00:03:45.501Z,21.08
2018-09-27T00:04:45.686Z,21.14
2018-09-27T00:05:45.558Z,21.14
2018-09-27T00:06:45.610Z,21.15
2018-09-27T00:07:45.701Z,21.19
2018-09-27T00:08:45.715Z,21.14
2018-09-27T00:09:45.771Z,21.20
2018-09-27T00:10:45.669Z,21.13
2018-09-27T00:11:45.756Z,21.14
2018-09-27T00:12:45.777Z,21.17
2018-09-27T00:13:45.792Z,21.13
2018-09-27T00:14:45.824Z,21.15
2018-09-27T00:15:45.689Z,21.13
2018-09-27T00:16:45.724Z,21.13
2018-09-27T00:17:45.849Z,21.19
2018-09-27T00:18:45.745Z,21.22
2018-09-27T00:19:45.907Z,21.19
2018-09-27T00:20:45.901Z,21.20
2018-09-27T00:21:45.910Z,21.25
2018-09-27T00:22:45.817Z,21.15
2018-09-27T00:23:45.822Z,21.20
2018-09-27T00:24:45.889Z,21.23
2018-09-27T00:25:45.855Z,21.17
2018-09-27T00:26:45.860Z,21.26
2018-09-27T00:27:45.912Z,21.20
2018-09-27T00:28:45.899Z,21.19
2018-09-27T00:29:45.910Z,21.20
2018-09-27T00:30:46.078Z,21.25
2018-09-27T00:31:45.957Z,21.17
2018-09-27T00:32:45.973Z,21.23
2018-09-27T00:33:46.104Z,21.22
2018-09-27T00:34:45.984Z,21.13
2018-09-27T00:35:45.998Z,21.11
2018-09-27T00:36:46.142Z,21.10
2018-09-27T00:37:46.044Z,21.11
2018-09-27T00:38:46.219Z,21.11
2018-09-27T00:39:46.058Z,21.08
2018-09-27T00:40:46.097Z,21.11
2018-09-27T00:41:46.096Z,21.08
2018-09-27T00:42:46.237Z,21.10
2018-09-27T00:43:46.402Z,21.14
2018-09-27T00:44:46.267Z,21.08
2018-09-27T00:45:46.157Z,21.13
2018-09-27T00:46:46.182Z,21.07
2018-09-27T00:47:46.199Z,21.14
2018-09-27T00:48:46.393Z,21.13
2018-09-27T00:49:46.216Z,21.10
2018-09-27T00:50:46.239Z,21.15
2018-09-27T00:51:46.371Z,21.11
2018-09-27T00:52:46.308Z,21.11
2018-09-27T00:53:46.334Z,21.07
2018-09-27T00:54:46.413Z,21.11
2018-09-27T00:55:46.302Z,21.07
2018-09-27T00:56:46.325Z,21.03
2018-09-27T00:57:46.344Z,21.11
2018-09-27T00:58:46.626Z,21.08
2018-09-27T00:59:46.489Z,21.13
2018-09-27T01:00:46.384Z,21.07
2018-09-27T01:01:46.523Z,21.11
2018-09-27T01:02:46.539Z,21.05
2018-09-27T01:03:46.702Z,21.07
2018-09-27T01:04:46.456Z,21.14
2018-09-27T01:05:46.458Z,21.10
2018-09-27T01:06:46.481Z,21.07
2018-09-27T01:07:46.618Z,21.05
2018-09-27T01:08:46.780Z,21.05
2018-09-27T01:09:46.514Z,21.04
2018-09-27T01:10:46.538Z,21.10
2018-09-27T01:11:46.550Z,21.08
2018-09-27T01:12:46.577Z,21.07
2018-09-27T01:13:46.732Z,21.15
2018-09-27T01:14:46.592Z,21.10
2018-09-27T01:15:46.638Z,21.07
2018-09-27T01:16:46.750Z,21.08
2018-09-27T01:17:46.641Z,21.08
2018-09-27T01:18:46.770Z,21.19
2018-09-27T01:19:46.689Z,21.15
2018-09-27T01:20:46.690Z,21.15
2018-09-27T01:21:46.720Z,21.19
2018-09-27T01:22:46.847Z,21.22
2018-09-27T01:23:46.896Z,21.22
2018-09-27T01:24:46.875Z,21.15
2018-09-27T01:25:46.888Z,21.19
2018-09-27T01:26:46.786Z,21.25
2018-09-27T01:27:46.795Z,21.20
2018-09-27T01:28:47.012Z,21.17
2018-09-27T01:29:46.840Z,21.22
2018-09-27T01:30:46.853Z,21.23
2018-09-27T01:31:46.858Z,21.26
2018-09-27T01:32:46.881Z,21.25
2018-09-27T01:33:47.080Z,21.37
2018-09-27T01:34:46.906Z,21.29
2018-09-27T01:35:46.935Z,21.32
2018-09-27T01:36:47.059Z,21.29
2018-09-27T01:37:46.952Z,21.32
2018-09-27T01:38:47.167Z,21.32
2018-09-27T01:39:47.109Z,21.32
2018-09-27T01:40:46.995Z,21.26
2018-09-27T01:41:47.013Z,21.33
2018-09-27T01:42:47.070Z,21.26
2018-09-27T01:43:47.249Z,21.28
2018-09-27T01:44:47.073Z,21.30
2018-09-27T01:45:47.097Z,21.22
2018-09-27T01:46:47.094Z,21.22
2018-09-27T01:47:47.117Z,21.20
2018-09-27T01:48:47.357Z,21.17
2018-09-27T01:49:47.262Z,21.11
2018-09-27T01:50:47.139Z,21.11
2018-09-27T01:51:47.295Z,21.10
2018-09-27T01:52:47.192Z,21.10
2018-09-27T01:53:47.368Z,21.05
2018-09-27T01:54:47.205Z,21.04
2018-09-27T01:55:47.233Z,21.05
2018-09-27T01:56:47.238Z,20.95
2018-09-27T01:57:47.314Z,21.01
2018-09-27T01:58:47.478Z,21.01
2018-09-27T01:59:47.300Z,20.92
2018-09-27T02:00:47.311Z,21.04
2018-09-27T02:01:47.341Z,20.95
2018-09-27T02:02:47.331Z,20.90
2018-09-27T02:03:47.548Z,21.04
2018-09-27T02:04:47.490Z,20.95
2018-09-27T02:05:47.388Z,21.03
2018-09-27T02:06:47.523Z,21.01
2018-09-27T02:07:47.408Z,21.03
2018-09-27T02:08:47.599Z,21.01
2018-09-27T02:09:47.438Z,21.01
2018-09-27T02:10:47.453Z,21.08
2018-09-27T02:11:47.490Z,21.10
2018-09-27T02:12:47.614Z,21.05
2018-09-27T02:13:47.841Z,21.14
2018-09-27T02:14:47.520Z,21.11
2018-09-27T02:15:47.662Z,21.11
2018-09-27T02:16:47.556Z,21.10
2018-09-27T02:17:47.562Z,21.20
2018-09-27T02:18:47.781Z,21.17
2018-09-27T02:19:47.599Z,21.15
2018-09-27T02:20:47.735Z,21.19
2018-09-27T02:21:47.641Z,21.22
2018-09-27T02:22:47.772Z,21.32
2018-09-27T02:23:47.993Z,21.30
2018-09-27T02:24:47.705Z,21.33
2018-09-27T02:25:47.693Z,21.32
2018-09-27T02:26:47.711Z,21.38
2018-09-27T02:27:47.840Z,21.35
2018-09-27T02:28:47.937Z,21.30
2018-09-27T02:29:47.750Z,21.41
2018-09-27T02:30:47.893Z,21.35
2018-09-27T02:31:47.907Z,21.22
2018-09-27T02:33:48.140Z,21.20
2018-09-27T02:34:47.953Z,21.28
2018-09-27T02:35:47.845Z,21.17
2018-09-27T02:36:47.890Z,21.19
2018-09-27T02:37:48.000Z,21.20
2018-09-27T02:38:47.957Z,21.20
2018-09-27T02:39:47.896Z,21.17
2018-09-27T02:40:47.909Z,21.11
2018-09-27T02:41:47.975Z,21.13
2018-09-27T02:42:48.076Z,21.15
2018-09-27T02:43:48.016Z,21.08
2018-09-27T02:44:47.977Z,21.13
2018-09-27T02:45:48.128Z,21.13
2018-09-27T02:46:48.020Z,21.14
2018-09-27T02:47:48.061Z,21.07
2018-09-27T02:48:48.286Z,21.13
2018-09-27T02:49:48.105Z,21.10
2018-09-27T02:50:48.079Z,21.08
2018-09-27T02:51:48.107Z,21.01
2018-09-27T02:52:48.228Z,21.01
2018-09-27T02:53:48.249Z,21.04
2018-09-27T02:54:48.308Z,20.95
2018-09-27T02:55:48.272Z,20.92
2018-09-27T02:56:48.299Z,20.95
2018-09-27T02:57:48.308Z,20.98
2018-09-27T02:58:48.194Z,21.03
2018-09-27T02:59:48.390Z,20.95
2018-09-27T03:00:48.227Z,20.95
2018-09-27T03:01:48.232Z,20.98
2018-09-27T03:02:48.263Z,20.89
2018-09-27T03:03:48.329Z,20.95
2018-09-27T03:04:48.415Z,20.98
2018-09-27T03:05:48.354Z,20.95
2018-09-27T03:06:48.316Z,20.93
2018-09-27T03:07:48.334Z,20.90
2018-09-27T03:08:48.362Z,20.89
2018-09-27T03:09:48.354Z,20.89
2018-09-27T03:10:48.505Z,20.88
2018-09-27T03:11:48.613Z,20.83
2018-09-27T03:12:48.404Z,20.86
2018-09-27T03:13:48.464Z,20.82
2018-09-27T03:14:48.483Z,20.75
2018-09-27T03:15:48.443Z,20.75
2018-09-27T03:16:48.526Z,20.71
2018-09-27T03:17:48.541Z,20.74
2018-09-27T03:18:48.492Z,20.73
2018-09-27T03:19:48.514Z,20.66
2018-09-27T03:20:48.578Z,20.60
2018-09-27T03:21:48.541Z,20.58
2018-09-27T03:22:48.610Z,20.52
2018-09-27T03:23:48.697Z,20.42
2018-09-27T03:24:48.592Z,20.44
2018-09-27T03:25:48.645Z,20.44
2018-09-27T03:26:48.619Z,20.42
2018-09-27T03:27:48.683Z,20.49
2018-09-27T03:28:48.655Z,20.42
2018-09-27T03:29:48.678Z,20.37
2018-09-27T03:30:48.806Z,20.40
2018-09-27T03:31:48.826Z,20.37
2018-09-27T03:32:48.718Z,20.40
2018-09-27T03:33:48.725Z,20.36
2018-09-27T03:34:48.745Z,20.32
2018-09-27T03:35:48.880Z,20.29
2018-09-27T03:36:48.817Z,20.26
2018-09-27T03:37:48.785Z,20.27
2018-09-27T03:38:49.049Z,20.32
2018-09-27T03:39:48.848Z,20.30
2018-09-27T03:40:48.837Z,20.27
2018-09-27T03:41:48.972Z,20.24
2018-09-27T03:42:48.987Z,20.29
2018-09-27T03:43:49.046Z,20.32
2018-09-27T03:44:48.936Z,20.29
2018-09-27T03:45:48.904Z,20.18
2018-09-27T03:46:48.929Z,20.34
2018-09-27T03:47:48.928Z,20.29
2018-09-27T03:48:49.072Z,20.34
2018-09-27T03:49:49.030Z,20.29
2018-09-27T03:50:48.985Z,20.27
2018-09-27T03:51:49.166Z,20.32
2018-09-27T03:52:49.061Z,20.36
2018-09-27T03:53:49.149Z,20.36
2018-09-27T03:54:49.052Z,20.29
2018-09-27T03:55:49.072Z,20.42
2018-09-27T03:56:49.065Z,20.36
2018-09-27T03:57:49.185Z,20.48
2018-09-27T03:58:49.099Z,20.44
2018-09-27T03:59:49.241Z,20.33
2018-09-27T04:00:49.252Z,20.44
2018-09-27T04:01:49.269Z,20.36
2018-09-27T04:02:49.215Z,20.37
2018-09-27T04:03:49.173Z,20.52
2018-09-27T04:04:49.340Z,20.48
2018-09-27T04:05:49.327Z,20.55
2018-09-27T04:06:49.212Z,20.59
2018-09-27T04:07:49.456Z,20.56
2018-09-27T04:08:49.376Z,20.64
2018-09-27T04:09:49.253Z,20.66
2018-09-27T04:10:49.272Z,20.64
2018-09-27T04:11:49.293Z,20.71
2018-09-27T04:12:49.366Z,20.70
2018-09-27T04:13:49.361Z,20.63
2018-09-27T04:14:49.345Z,20.74
2018-09-27T04:15:49.374Z,20.63
2018-09-27T04:16:49.380Z,20.71
2018-09-27T04:17:49.629Z,20.74
2018-09-27T04:18:49.394Z,20.74
2018-09-27T04:19:49.416Z,20.75
2018-09-27T04:20:49.556Z,20.71
2018-09-27T04:21:49.625Z,20.75
2018-09-27T04:22:49.565Z,20.66
2018-09-27T04:23:49.618Z,20.70
2018-09-27T04:24:49.488Z,20.75
2018-09-27T04:25:49.633Z,20.68
2018-09-27T04:26:49.529Z,20.59
2018-09-27T04:27:49.741Z,20.52
2018-09-27T04:28:49.681Z,20.60
2018-09-27T04:29:49.671Z,20.56
2018-09-27T04:30:49.633Z,20.46
2018-09-27T04:31:49.610Z,20.50
2018-09-27T04:32:49.599Z,20.50
2018-09-27T04:33:49.791Z,20.40
2018-09-27T04:34:49.691Z,20.40
2018-09-27T04:35:49.663Z,20.46
2018-09-27T04:36:49.671Z,20.33
2018-09-27T04:37:49.691Z,20.42
2018-09-27T04:38:49.828Z,20.44
2018-09-27T04:39:49.984Z,20.53
2018-09-27T04:40:49.866Z,20.40
2018-09-27T04:41:49.742Z,20.40
2018-09-27T04:42:49.761Z,20.44
2018-09-27T04:43:49.905Z,20.39
2018-09-27T04:44:49.840Z,20.34
2018-09-27T04:45:49.855Z,20.44
2018-09-27T04:46:49.937Z,20.26
2018-09-27T04:47:49.842Z,20.37
2018-09-27T04:48:49.980Z,20.34
2018-09-27T04:49:50.194Z,20.42
2018-09-27T04:50:50.004Z,20.42
2018-09-27T04:51:50.085Z,20.33
2018-09-27T04:52:49.931Z,20.34
2018-09-27T04:53:50.053Z,20.37
2018-09-27T04:54:50.148Z,20.34
2018-09-27T04:55:50.080Z,20.44
2018-09-27T04:56:50.096Z,20.40
2018-09-27T04:57:49.993Z,20.37
2018-09-27T04:58:50.002Z,20.44
2018-09-27T04:59:50.385Z,20.40
2018-09-27T05:00:50.153Z,20.42
2018-09-27T05:01:50.087Z,20.37
2018-09-27T05:02:50.064Z,20.37
2018-09-27T05:03:50.132Z,20.37
2018-09-27T05:04:50.422Z,20.34
2018-09-27T05:05:50.113Z,20.29
2018-09-27T05:06:50.244Z,20.27
2018-09-27T05:07:50.149Z,20.29
2018-09-27T05:08:50.157Z,20.29
2018-09-27T05:09:50.371Z,20.29
2018-09-27T05:10:50.182Z,20.24
2018-09-27T05:11:50.209Z,20.24
2018-09-27T05:12:50.265Z,20.32
2018-09-27T05:13:50.239Z,20.18
2018-09-27T05:14:50.286Z,20.18
2018-09-27T05:15:50.289Z,20.19
2018-09-27T05:16:50.290Z,20.15
2018-09-27T05:17:50.498Z,20.18
2018-09-27T05:18:50.291Z,20.17
2018-09-27T05:19:50.317Z,20.08
2018-09-27T05:20:50.338Z,20.07
2018-09-27T05:21:50.472Z,20.03
2018-09-27T05:22:50.558Z,20.02
2018-09-27T05:23:50.376Z,20.00
2018-09-27T05:24:50.520Z,20.04
2018-09-27T05:25:50.530Z,20.00
2018-09-27T05:26:50.418Z,20.00
2018-09-27T05:27:50.692Z,19.93
2018-09-27T05:28:50.464Z,19.97
2018-09-27T05:29:50.470Z,19.89
2018-09-27T05:30:50.491Z,19.82
2018-09-27T05:31:50.500Z,19.79
2018-09-27T05:32:50.592Z,19.84
2018-09-27T05:33:50.525Z,19.81
2018-09-27T05:34:50.667Z,19.78
2018-09-27T05:35:50.569Z,19.89
2018-09-27T05:36:50.564Z,19.96
2018-09-27T05:37:50.908Z,19.90
2018-09-27T05:38:50.598Z,20.04
2018-09-27T05:39:50.742Z,20.02
2018-09-27T05:40:50.635Z,20.10
2018-09-27T05:41:50.770Z,20.04
2018-09-27T05:42:50.981Z,19.99
2018-09-27T05:43:50.680Z,20.03
2018-09-27T05:44:50.688Z,20.15
2018-09-27T05:45:50.696Z,20.14
2018-09-27T05:46:50.711Z,20.17
2018-09-27T05:47:50.782Z,20.17
2018-09-27T05:48:50.873Z,20.15
2018-09-27T05:49:50.820Z,20.24
2018-09-27T05:50:51.095Z,20.17
2018-09-27T05:51:50.786Z,20.24
2018-09-27T05:52:50.811Z,20.22
2018-09-27T05:53:50.833Z,20.22
2018-09-27T05:54:50.877Z,20.32
2018-09-27T05:55:51.098Z,20.32
2018-09-27T05:56:50.902Z,20.30
2018-09-27T05:57:50.879Z,20.21
2018-09-27T05:58:50.900Z,20.12
2018-09-27T05:59:51.038Z,20.12
2018-09-27T06:00:50.969Z,20.02
2018-09-27T06:01:50.991Z,20.07
2018-09-27T06:02:50.964Z,20.00
2018-09-27T06:03:51.091Z,20.03
2018-09-27T06:04:50.993Z,19.99
2018-09-27T06:05:51.072Z,20.02
2018-09-27T06:06:51.135Z,20.02
2018-09-27T06:07:51.034Z,19.93
2018-09-27T06:08:51.172Z,19.90
2018-09-27T06:09:51.058Z,19.78
2018-09-27T06:10:51.200Z,19.74
2018-09-27T06:11:51.083Z,19.78
2018-09-27T06:12:51.105Z,19.74
2018-09-27T06:13:51.188Z,19.74
2018-09-27T06:14:51.141Z,19.70
2018-09-27T06:15:51.151Z,19.67
2018-09-27T06:16:51.283Z,19.72
2018-09-27T06:17:51.414Z,19.77
2018-09-27T06:18:51.317Z,19.66
2018-09-27T06:19:51.277Z,19.71
2018-09-27T06:20:51.348Z,19.63
2018-09-27T06:21:51.358Z,19.77
2018-09-27T06:22:51.427Z,19.64
2018-09-27T06:23:51.267Z,19.79
2018-09-27T06:24:51.289Z,19.63
2018-09-27T06:25:51.458Z,19.67
2018-09-27T06:26:51.330Z,19.63
2018-09-27T06:27:51.322Z,19.64
2018-09-27T06:28:51.659Z,19.59
2018-09-27T06:29:51.359Z,19.60
2018-09-27T06:30:51.365Z,19.57
2018-09-27T06:31:51.389Z,19.63
2018-09-27T06:32:51.397Z,19.53
2018-09-27T06:33:51.617Z,19.60
2018-09-27T06:34:51.463Z,19.57
2018-09-27T06:35:51.479Z,19.53
2018-09-27T06:36:51.462Z,19.53
2018-09-27T06:37:51.464Z,19.64
2018-09-27T06:38:51.604Z,19.62
2018-09-27T06:39:51.492Z,19.62
2018-09-27T06:40:51.516Z,19.72
2018-09-27T06:41:51.651Z,19.62
2018-09-27T06:42:51.538Z,19.67
2018-09-27T06:43:51.877Z,19.64
2018-09-27T06:44:51.696Z,19.66
2018-09-27T06:45:51.711Z,19.66
2018-09-27T06:46:51.598Z,19.57
2018-09-27T06:47:51.625Z,19.57
2018-09-27T06:48:51.788Z,19.45
2018-09-27T06:49:51.649Z,19.48
2018-09-27T06:50:51.679Z,19.47
2018-09-27T06:51:51.798Z,19.35
2018-09-27T06:52:51.731Z,19.32
2018-09-27T06:53:51.903Z,19.37
2018-09-27T06:54:51.913Z,19.34
2018-09-27T06:55:51.950Z,19.32
2018-09-27T06:56:51.748Z,19.37
2018-09-27T06:57:51.775Z,19.35
2018-09-27T06:58:52.104Z,19.22
2018-09-27T06:59:51.793Z,19.32
2018-09-27T07:00:51.949Z,19.35
2018-09-27T07:01:51.942Z,19.42
2018-09-27T07:02:51.837Z,19.29
2018-09-27T07:03:52.024Z,19.30
2018-09-27T07:04:51.948Z,19.39
2018-09-27T07:05:51.887Z,19.37
2018-09-27T07:06:51.889Z,19.39
2018-09-27T07:07:51.903Z,19.32
2018-09-27T07:08:52.127Z,19.37
2018-09-27T07:09:52.054Z,19.35
2018-09-27T07:10:51.938Z,19.32
2018-09-27T07:11:52.035Z,19.26
2018-09-27T07:12:52.070Z,19.20
2018-09-27T07:13:52.036Z,19.27
2018-09-27T07:14:52.105Z,19.19
2018-09-27T07:15:52.149Z,19.24
2018-09-27T07:16:52.157Z,19.32
2018-09-27T07:17:52.044Z,19.30
2018-09-27T07:18:52.195Z,19.20
2018-09-27T07:19:52.129Z,19.29
2018-09-27T07:20:52.102Z,19.34
2018-09-27T07:21:52.116Z,19.32
2018-09-27T07:22:52.326Z,19.34
2018-09-27T07:23:52.144Z,19.37
2018-09-27T07:24:52.164Z,19.35
2018-09-27T07:25:52.204Z,19.41
2018-09-27T07:26:52.182Z,19.39
2018-09-27T07:27:52.390Z,19.38
2018-09-27T07:28:52.216Z,19.53
2018-09-27T07:29:52.226Z,19.49
2018-09-27T07:30:52.232Z,19.49
2018-09-27T07:31:52.258Z,19.56
2018-09-27T07:32:52.440Z,19.56
2018-09-27T07:33:52.286Z,19.64
2018-09-27T07:34:52.289Z,19.63
2018-09-27T07:35:52.634Z,19.70
2018-09-27T07:36:52.337Z,19.70
2018-09-27T07:37:52.340Z,19.72
2018-09-27T07:38:52.352Z,19.77
2018-09-27T07:39:52.495Z,19.74
2018-09-27T07:40:52.584Z,19.71
2018-09-27T07:41:52.521Z,19.77
2018-09-27T07:42:52.620Z,19.81
2018-09-27T07:43:52.427Z,19.81
2018-09-27T07:44:52.438Z,19.77
2018-09-27T07:45:52.546Z,19.75
2018-09-27T07:46:52.460Z,19.81
2018-09-27T07:47:52.613Z,19.81
2018-09-27T07:48:52.632Z,19.85
2018-09-27T07:49:52.523Z,19.84
2018-09-27T07:50:52.579Z,19.81
2018-09-27T07:51:52.540Z,19.97
2018-09-27T07:52:52.682Z,19.93
2018-09-27T07:53:52.697Z,19.96
2018-09-27T07:54:53.003Z,19.96
2018-09-27T07:55:52.727Z,20.04
2018-09-27T07:56:52.631Z,19.93
2018-09-27T07:57:52.754Z,20.07
2018-09-27T07:58:52.646Z,20.00
2018-09-27T07:59:52.857Z,19.94
2018-09-27T08:00:52.671Z,19.99
2018-09-27T08:01:52.694Z,19.92
2018-09-27T08:02:52.823Z,19.97
2018-09-27T08:03:52.845Z,19.99
2018-09-27T08:04:52.792Z,19.97
2018-09-27T08:05:52.751Z,19.99
2018-09-27T08:06:52.889Z,20.03
2018-09-27T08:07:52.790Z,20.00
2018-09-27T08:08:52.918Z,20.03
2018-09-27T08:09:53.031Z,20.03
2018-09-27T08:10:52.846Z,19.90
2018-09-27T08:11:52.965Z,20.00
2018-09-27T08:12:52.851Z,20.10
2018-09-27T08:13:52.996Z,19.99
2018-09-27T08:14:52.982Z,20.11
2018-09-27T08:15:52.904Z,20.07
2018-09-27T08:16:52.957Z,20.00
2018-09-27T08:17:53.050Z,20.08
2018-09-27T08:18:53.069Z,19.99
2018-09-27T08:19:53.161Z,19.99
2018-09-27T08:20:52.998Z,20.03
2018-09-27T08:21:53.030Z,20.02
2018-09-27T08:22:53.014Z,20.10
2018-09-27T08:23:53.176Z,20.03
2018-09-27T08:24:53.039Z,20.07
2018-09-27T08:25:53.092Z,20.02
2018-09-27T08:26:53.070Z,20.17
2018-09-27T08:27:53.083Z,20.11
2018-09-27T08:28:53.215Z,20.03
2018-09-27T08:29:53.233Z,20.12
2018-09-27T08:30:53.388Z,20.02
2018-09-27T08:31:53.260Z,20.03
2018-09-27T08:32:53.270Z,20.04
2018-09-27T08:33:53.292Z,20.19
2018-09-27T08:34:53.178Z,20.18
2018-09-27T08:35:53.182Z,20.27
2018-09-27T08:36:53.447Z,20.27
2018-09-27T08:37:53.349Z,20.33
2018-09-27T08:38:53.238Z,20.27
2018-09-27T08:39:53.257Z,20.29
2018-09-27T08:40:53.390Z,20.30
2018-09-27T08:41:53.341Z,20.34
2018-09-27T08:42:53.304Z,20.26
2018-09-27T08:43:53.440Z,20.27
2018-09-27T08:44:53.641Z,20.33
2018-09-27T08:45:53.395Z,20.27
2018-09-27T08:46:53.407Z,20.33
2018-09-27T08:47:53.373Z,20.32
2018-09-27T08:48:53.393Z,20.29
2018-09-27T08:49:53.411Z,20.32
2018-09-27T08:50:53.420Z,20.24
2018-09-27T08:51:53.659Z,20.24
2018-09-27T08:52:53.586Z,20.29
2018-09-27T08:53:53.469Z,20.22
2018-09-27T08:54:53.599Z,20.24
2018-09-27T08:55:53.546Z,20.24
2018-09-27T08:56:53.744Z,20.21
2018-09-27T08:57:53.519Z,20.22
2018-09-27T08:58:53.658Z,20.26
2018-09-27T08:59:53.555Z,20.27
2018-09-27T09:00:53.572Z,20.29
2018-09-27T09:01:53.903Z,20.32
2018-09-27T09:02:53.634Z,20.34
2018-09-27T09:03:53.638Z,20.30
2018-09-27T09:04:53.630Z,20.30
2018-09-27T09:05:53.636Z,20.30
2018-09-27T09:06:53.852Z,20.26
2018-09-27T09:07:53.788Z,20.27
2018-09-27T09:08:53.686Z,20.30
2018-09-27T09:09:53.704Z,20.19
2018-09-27T09:10:53.840Z,20.39
2018-09-27T09:11:53.904Z,20.40
2018-09-27T09:12:53.736Z,20.44
2018-09-27T09:13:53.763Z,20.40
2018-09-27T09:14:53.793Z,20.39
2018-09-27T09:15:53.909Z,20.60
2018-09-27T09:16:53.842Z,20.58
2018-09-27T09:17:53.817Z,20.66
2018-09-27T09:18:53.955Z,20.73
2018-09-27T09:19:53.973Z,20.80
2018-09-27T09:20:53.959Z,20.63
2018-09-27T09:21:53.884Z,20.82
2018-09-27T09:22:53.886Z,20.77
2018-09-27T09:23:53.936Z,20.89
2018-09-27T09:24:53.926Z,20.90
2018-09-27T09:25:54.270Z,20.96
2018-09-27T09:26:53.950Z,21.08
2018-09-27T09:27:54.094Z,21.07
2018-09-27T09:28:53.984Z,21.17
2018-09-27T09:29:54.178Z,21.37
2018-09-27T09:30:54.187Z,21.47
2018-09-27T09:31:54.036Z,21.44
2018-09-27T09:32:54.045Z,21.50
2018-09-27T09:33:54.056Z,21.50
2018-09-27T09:34:54.097Z,21.60
2018-09-27T09:35:54.311Z,21.59
2018-09-27T09:36:54.115Z,21.59
2018-09-27T09:37:54.126Z,21.65
2018-09-27T09:38:54.267Z,21.69
2018-09-27T09:39:54.284Z,21.77
2018-09-27T09:40:54.230Z,21.84
2018-09-27T09:41:54.197Z,21.80
2018-09-27T09:42:54.200Z,21.83
2018-09-27T09:43:54.220Z,21.84
2018-09-27T09:44:54.237Z,21.84
2018-09-27T09:45:54.429Z,22.03
2018-09-27T09:46:54.274Z,22.00
2018-09-27T09:47:54.275Z,22.10
2018-09-27T09:48:54.306Z,22.10
2018-09-27T09:49:54.321Z,22.10
2018-09-27T09:50:54.654Z,22.08
2018-09-27T09:51:54.469Z,22.16
2018-09-27T09:52:54.359Z,22.18
2018-09-27T09:53:54.503Z,22.21
2018-09-27T09:54:54.388Z,22.21
2018-09-27T09:55:54.503Z,22.36
2018-09-27T09:56:54.431Z,22.40
2018-09-27T09:57:54.452Z,22.41
2018-09-27T09:58:54.498Z,22.40
2018-09-27T09:59:54.480Z,22.47
2018-09-27T10:00:54.761Z,22.37
2018-09-27T10:01:54.513Z,22.43
2018-09-27T10:02:54.655Z,22.40
2018-09-27T10:03:54.561Z,22.58
2018-09-27T10:04:54.687Z,22.62
2018-09-27T10:05:54.677Z,22.65
2018-09-27T10:06:54.608Z,22.74
2018-09-27T10:07:54.617Z,22.70
2018-09-27T10:08:54.808Z,22.73
2018-09-27T10:09:54.689Z,22.80
2018-09-27T10:10:54.711Z,22.70
2018-09-27T10:11:54.667Z,22.89
2018-09-27T10:12:54.688Z,22.78
2018-09-27T10:13:54.840Z,22.86
2018-09-27T10:14:54.948Z,22.89
2018-09-27T10:15:54.751Z,22.88
2018-09-27T10:16:54.780Z,23.01
2018-09-27T10:17:54.901Z,23.10
2018-09-27T10:18:54.800Z,22.98
2018-09-27T10:19:55.150Z,23.07
2018-09-27T10:20:54.828Z,23.18
2018-09-27T10:21:54.860Z,23.32
2018-09-27T10:22:54.857Z,23.48
2018-09-27T10:23:54.870Z,23.69
2018-09-27T10:24:54.938Z,23.63
2018-09-27T10:25:54.913Z,23.74
2018-09-27T10:26:55.054Z,23.94
2018-09-27T10:27:54.950Z,24.11
2018-09-27T10:28:54.968Z,24.29
2018-09-27T10:29:55.215Z,24.47
2018-09-27T10:30:55.123Z,24.65
2018-09-27T10:31:55.016Z,24.75
2018-09-27T10:32:55.157Z,24.84
2018-09-27T10:33:55.070Z,24.96
2018-09-27T10:34:55.174Z,24.94
2018-09-27T10:35:55.212Z,24.97
2018-09-27T10:36:55.113Z,25.06
2018-09-27T10:37:55.247Z,25.07
2018-09-27T10:38:55.148Z,25.06
2018-09-27T10:39:55.385Z,25.12
2018-09-27T10:40:55.307Z,25.19
2018-09-27T10:41:55.321Z,25.22
2018-09-27T10:42:55.215Z,25.19
2018-09-27T10:43:55.232Z,25.19
2018-09-27T10:44:55.324Z,25.18
2018-09-27T10:45:55.493Z,25.07
2018-09-27T10:46:55.294Z,25.00
2018-09-27T10:47:55.313Z,24.93
2018-09-27T10:48:55.445Z,24.99
2018-09-27T10:49:55.364Z,24.88
2018-09-27T10:50:55.469Z,24.89
2018-09-27T10:51:55.499Z,24.81
2018-09-27T10:52:55.517Z,24.92
2018-09-27T10:53:55.535Z,24.94
2018-09-27T10:54:55.552Z,24.92
2018-09-27T10:55:55.643Z,24.96
2018-09-27T10:56:55.481Z,25.00
2018-09-27T10:57:55.608Z,25.14
2018-09-27T10:58:55.625Z,25.18
2018-09-27T10:59:55.535Z,25.33
2018-09-27T11:00:55.578Z,25.46
2018-09-27T11:01:55.561Z,25.62
2018-09-27T11:02:55.579Z,25.77
2018-09-27T11:03:55.639Z,26.01
2018-09-27T11:04:55.627Z,26.36
2018-09-27T11:05:55.845Z,26.63
2018-09-27T11:06:55.646Z,26.88
2018-09-27T11:07:55.659Z,27.00
2018-09-27T11:08:55.688Z,27.11
2018-09-27T11:09:55.713Z,27.35
2018-09-27T11:10:56.112Z,27.38
2018-09-27T11:11:55.744Z,27.58
2018-09-27T11:12:55.762Z,27.78
2018-09-27T11:13:55.783Z,27.79
2018-09-27T11:14:55.917Z,27.76
2018-09-27T11:15:55.868Z,27.79
2018-09-27T11:16:55.837Z,27.72
2018-09-27T11:17:55.855Z,27.82
2018-09-27T11:18:55.873Z,28.13
2018-09-27T11:19:55.897Z,28.30
2018-09-27T11:20:56.230Z,28.40
2018-09-27T11:21:55.960Z,28.31
2018-09-27T11:22:55.952Z,28.19
2018-09-27T11:23:56.097Z,27.88
2018-09-27T11:24:55.994Z,27.82
2018-09-27T11:25:56.110Z,27.85
2018-09-27T11:26:56.025Z,27.83
2018-09-27T11:27:56.049Z,27.95
2018-09-27T11:28:56.088Z,28.10
2018-09-27T11:29:56.085Z,28.12
2018-09-27T11:30:56.118Z,27.98
2018-09-27T11:31:56.187Z,27.78
2018-09-27T11:32:56.194Z,27.71
2018-09-27T11:33:56.185Z,27.58
2018-09-27T11:34:56.311Z,27.34
2018-09-27T11:35:56.198Z,27.28
2018-09-27T11:36:56.281Z,27.05
2018-09-27T11:37:56.372Z,26.71
2018-09-27T11:38:56.288Z,26.60
2018-09-27T11:39:56.296Z,26.46
2018-09-27T11:40:56.312Z,26.39
2018-09-27T11:41:56.372Z,26.31
2018-09-27T11:42:56.594Z,26.22
2018-09-27T11:43:56.495Z,25.96
2018-09-27T11:44:56.516Z,25.63
2018-09-27T11:45:56.411Z,25.43
2018-09-27T11:46:56.475Z,25.37
2018-09-27T11:47:56.573Z,25.21
2018-09-27T11:48:56.488Z,25.11
2018-09-27T11:49:56.644Z,24.85
2018-09-27T11:50:56.627Z,24.84
2018-09-27T11:51:56.591Z,24.89
2018-09-27T11:52:56.659Z,24.58
2018-09-27T11:53:56.561Z,24.48
2018-09-27T11:54:56.627Z,24.48
2018-09-27T11:55:56.776Z,24.55
2018-09-27T11:56:56.788Z,24.59
2018-09-27T11:57:56.625Z,24.58
2018-09-27T11:58:56.838Z,24.71
2018-09-27T11:59:56.795Z,24.94
2018-09-27T12:00:56.696Z,24.88
2018-09-27T12:01:56.762Z,24.89
2018-09-27T12:02:56.715Z,24.92
2018-09-27T12:03:56.864Z,24.89
2018-09-27T12:04:56.884Z,24.93
2018-09-27T12:05:56.918Z,25.03
2018-09-27T12:06:56.854Z,25.14
2018-09-27T12:07:56.813Z,25.29
2018-09-27T12:08:56.845Z,25.44
2018-09-27T12:09:56.978Z,25.58
2018-09-27T12:10:56.989Z,25.77
2018-09-27T12:11:56.964Z,25.74
2018-09-27T12:12:56.917Z,25.77
2018-09-27T12:13:57.052Z,25.78
2018-09-27T12:14:57.066Z,25.66
2018-09-27T12:15:57.086Z,25.43
2018-09-27T12:16:57.118Z,25.29
2018-09-27T12:17:56.991Z,25.21
2018-09-27T12:18:57.137Z,25.12
2018-09-27T12:19:57.109Z,25.21
2018-09-27T12:20:57.174Z,25.31
2018-09-27T12:21:57.165Z,25.49
2018-09-27T12:22:57.136Z,25.48
2018-09-27T12:23:57.116Z,25.62
2018-09-27T12:24:57.129Z,25.63
2018-09-27T12:25:57.268Z,25.74
2018-09-27T12:26:57.205Z,25.99
2018-09-27T12:27:57.173Z,26.30
2018-09-27T12:28:57.324Z,26.53
2018-09-27T12:29:57.344Z,26.64
2018-09-27T12:30:57.287Z,26.66
2018-09-27T12:31:57.354Z,26.68
2018-09-27T12:32:57.293Z,26.34
2018-09-27T12:33:57.351Z,26.53
2018-09-27T12:34:57.341Z,26.74
2018-09-27T12:35:57.343Z,26.71
2018-09-27T12:36:57.500Z,26.82
2018-09-27T12:37:57.504Z,26.92
2018-09-27T12:38:57.525Z,27.34
2018-09-27T12:39:57.544Z,27.45
2018-09-27T12:40:57.445Z,27.78
2018-09-27T12:41:57.735Z,27.91
2018-09-27T12:42:57.551Z,28.20
2018-09-27T12:43:57.485Z,28.43
2018-09-27T12:44:57.527Z,28.47
2018-09-27T12:45:57.707Z,28.47
2018-09-27T12:46:57.738Z,28.94
2018-09-27T12:47:57.627Z,29.35
2018-09-27T12:48:57.637Z,29.71
2018-09-27T12:49:57.742Z,29.71
2018-09-27T12:50:57.645Z,29.83
2018-09-27T12:51:58.006Z,29.83
2018-09-27T12:52:57.835Z,29.73
2018-09-27T12:53:57.748Z,29.87